Time;durP1;ratioP1;P1;durP2;ratioP2;P2;SDS_P1;SDS_P2;PMS_P1;PMS_P2;Temp;Humidity;BMP_temperature;BMP_pressure;BME280_temperature;BME280_humidity;BME280_pressure;Samples;Min_cycle;Max_cycle;Signal;HPM_P1;HPM_P2
2023/07/01 00:00:59;;;;;;;5.57;2.85;;;;;;;18.78;70.61;98940.41;4982544;28;20388;-51
2023/07/01 00:03:30;;;;;;;7.13;1.98;;;;;;;18.78;70.75;98942.19;4983464;28;20069;-49
2023/07/01 00:05:58;;;;;;;4.88;2.38;;;;;;;18.78;70.27;98943.03;4986324;28;20061;-52
2023/07/01 00:08:25;;;;;;;5.05;1.65;;;;;;;18.78;70.64;98944.81;4988340;28;20061;-49
2023/07/01 00:10:53;;;;;;;5.72;2.22;;;;;;;18.77;70.31;98943.13;4987789;28;20054;-51
2023/07/01 00:13:20;;;;;;;4.93;2.53;;;;;;;18.76;70.97;98939.66;4986105;28;20446;-54
2023/07/01 00:15:46;;;;;;;4.38;1.80;;;;;;;18.75;70.80;98936.19;4980950;28;20045;-48
2023/07/01 00:18:13;;;;;;;3.55;2.13;;;;;;;18.73;70.73;98938.06;4976346;28;20054;-53
2023/07/01 00:20:40;;;;;;;3.80;1.95;;;;;;;18.73;70.85;98931.94;4961948;28;20047;-52
2023/07/01 00:23:07;;;;;;;5.65;2.25;;;;;;;18.71;71.05;98932.03;4960518;28;20042;-51
2023/07/01 00:25:34;;;;;;;4.85;2.10;;;;;;;18.72;70.43;98939.00;4962021;28;20046;-51
2023/07/01 00:28:03;;;;;;;4.38;2.30;;;;;;;18.71;70.74;98937.28;4961117;28;20112;-52
2023/07/01 00:30:31;;;;;;;4.30;1.95;;;;;;;18.71;70.84;98942.53;4965396;28;20102;-53
2023/07/01 00:33:00;;;;;;;6.80;2.83;;;;;;;18.71;71.01;98934.66;4975855;28;20076;-52
2023/07/01 00:35:31;;;;;;;5.28;2.13;;;;;;;18.69;70.81;98923.41;4975408;28;20093;-53
2023/07/01 00:38:00;;;;;;;6.07;2.42;;;;;;;18.70;70.87;98929.50;4971406;28;20069;-52
2023/07/01 00:40:28;;;;;;;4.75;2.00;;;;;;;18.68;71.44;98916.44;4977146;28;20141;-52
2023/07/01 00:42:56;;;;;;;5.18;2.35;;;;;;;18.69;71.14;98933.91;4974562;28;20053;-48
2023/07/01 00:45:24;;;;;;;5.32;2.42;;;;;;;18.69;70.95;98923.41;4976907;28;20050;-51
2023/07/01 00:47:53;;;;;;;;;;;;;;;18.53;71.40;98919.91;4975577;28;20050;-53
2023/07/01 00:50:22;;;;;;;4.85;2.13;;;;;;;18.64;70.66;98920.19;4975220;28;19948;-50
2023/07/01 00:52:50;;;;;;;8.45;2.00;;;;;;;18.65;71.07;98921.03;4973786;28;20169;-53
2023/07/01 00:55:18;;;;;;;5.03;2.28;;;;;;;18.65;71.10;98911.41;4989234;28;20406;-50
2023/07/01 00:57:45;;;;;;;4.97;2.33;;;;;;;18.63;71.21;98913.25;4985682;28;20149;-49
2023/07/01 01:00:14;;;;;;;4.93;2.15;;;;;;;18.62;70.81;98904.53;4987664;28;20738;-49
2023/07/01 01:05:27;;;;;;;5.30;1.83;;;;;;;18.61;71.30;98909.88;5056710;27;20389;-49
2023/07/01 01:10:33;;;;;;;4.97;3.28;;;;;;;18.59;71.03;98911.72;5052505;27;20386;-50
2023/07/01 01:13:02;;;;;;;6.18;3.38;;;;;;;18.59;71.51;98906.47;5005345;27;20049;-51
2023/07/01 01:15:30;;;;;;;4.47;3.40;;;;;;;18.58;71.18;98910.03;5001865;28;20078;-52
2023/07/01 01:18:16;;;;;;;5.78;3.10;;;;;;;18.50;71.00;98898.19;5002061;28;20060;-50
2023/07/01 01:21:11;;;;;;;6.65;3.35;;;;;;;18.55;71.21;98895.31;5000421;28;20140;-51
2023/07/01 01:23:45;;;;;;;4.25;3.05;;;;;;;18.54;71.33;98900.66;5006484;28;20065;-49
2023/07/01 01:28:51;;;;;;;3.92;1.50;;;;;;;18.54;71.33;98900.66;5051648;28;20414;-47
2023/07/01 01:31:19;;;;;;;5.00;1.73;;;;;;;18.53;71.68;98906.81;5048424;28;20068;-48
2023/07/01 01:33:48;;;;;;;3.30;1.55;;;;;;;18.53;71.32;98906.81;5032476;28;20922;-50
2023/07/01 01:36:34;;;;;;;2.88;1.35;;;;;;;18.47;71.47;98903.59;5024232;28;20055;-49
2023/07/01 01:39:05;;;;;;;6.00;1.58;;;;;;;18.52;71.22;98905.13;5035695;28;20045;-52
2023/07/01 01:41:41;;;;;;;2.70;1.08;;;;;;;18.50;71.17;98903.44;5033649;28;20586;-52
2023/07/01 01:44:13;;;;;;;4.22;1.65;;;;;;;18.49;70.90;98896.50;5033684;28;20044;-49
2023/07/01 01:46:41;;;;;;;5.30;1.77;;;;;;;18.49;71.58;98891.25;5032420;28;20642;-51
2023/07/01 01:49:11;;;;;;;2.05;1.20;;;;;;;18.50;71.18;98895.56;5036493;28;20500;-50
2023/07/01 01:51:40;;;;;;;2.53;1.33;;;;;;;18.48;71.38;98899.22;5033466;28;20496;-49
2023/07/01 01:54:10;;;;;;;2.97;1.23;;;;;;;18.47;71.34;98889.63;5033733;28;20627;-52
2023/07/01 01:56:37;;;;;;;2.75;1.42;;;;;;;18.47;71.25;98895.72;5031743;28;20045;-48
2023/07/01 01:59:04;;;;;;;3.17;1.20;;;;;;;18.46;71.94;98901.91;5035154;28;20060;-50
2023/07/01 02:01:31;;;;;;;2.30;1.00;;;;;;;18.44;71.43;98893.28;5027686;28;20547;-51
2023/07/01 02:03:58;;;;;;;4.60;1.95;;;;;;;18.44;70.97;98895.88;5029292;28;20086;-48
2023/07/01 02:06:24;;;;;;;2.95;1.00;;;;;;;18.46;71.18;98896.66;5037315;28;20048;-52
2023/07/01 02:08:51;;;;;;;2.63;1.17;;;;;;;18.46;71.52;98894.03;5033783;28;20056;-50
2023/07/01 02:11:18;;;;;;;2.13;1.05;;;;;;;18.46;71.45;98886.19;5027047;28;20428;-54
2023/07/01 02:13:44;;;;;;;3.22;1.10;;;;;;;18.46;71.69;98894.03;5032245;28;20506;-51
2023/07/01 02:16:11;;;;;;;2.88;1.92;;;;;;;18.46;70.94;98888.81;5029482;28;20460;-54
2023/07/01 02:18:38;;;;;;;4.75;1.30;;;;;;;18.47;70.86;98893.09;5027982;28;20053;-52
2023/07/01 02:21:06;;;;;;;2.50;1.20;;;;;;;18.47;71.56;98893.09;5029326;28;20041;-49
2023/07/01 02:23:33;;;;;;;2.88;1.02;;;;;;;18.47;71.09;98887.00;5027924;28;20053;-49
2023/07/01 02:26:00;;;;;;;2.38;1.27;;;;;;;18.46;70.90;98883.56;5030087;28;20057;-51
2023/07/01 02:28:26;;;;;;;1.70;0.80;;;;;;;18.45;71.34;98884.50;5029154;28;20094;-48
2023/07/01 02:30:54;;;;;;;1.88;1.20;;;;;;;18.45;70.72;98894.13;5028135;28;20142;-52
2023/07/01 02:33:20;;;;;;;2.25;1.13;;;;;;;18.44;70.83;98890.66;5035542;28;20080;-49
2023/07/01 02:35:47;;;;;;;1.60;1.00;;;;;;;18.42;71.41;98892.53;5033405;28;20055;-50
2023/07/01 02:38:14;;;;;;;1.63;1.05;;;;;;;18.43;70.91;98882.88;5033451;28;20071;-53
2023/07/01 02:40:41;;;;;;;2.00;0.63;;;;;;;18.41;70.77;98890.81;5015964;28;20058;-50
2023/07/01 02:43:08;;;;;;;1.92;1.00;;;;;;;18.41;71.10;98892.59;5021986;28;20041;-49
2023/07/01 02:45:34;;;;;;;3.53;0.90;;;;;;;18.40;71.34;98893.53;5013542;28;20049;-50
2023/07/01 02:48:01;;;;;;;1.38;0.63;;;;;;;18.39;71.50;98897.06;5020808;28;20051;-48
2023/07/01 02:50:29;;;;;;;1.83;0.90;;;;;;;18.36;71.04;98891.06;5020112;28;20045;-50
2023/07/01 02:52:55;;;;;;;1.42;0.57;;;;;;;18.38;71.51;98893.63;5015382;28;20048;-51
2023/07/01 02:55:28;;;;;;;1.50;0.80;;;;;;;18.39;71.02;98891.81;5021122;28;20112;-52
2023/07/01 02:57:55;;;;;;;1.35;0.80;;;;;;;18.36;70.59;98898.09;5016551;28;20044;-49
2023/07/01 03:00:22;;;;;;;1.33;0.63;;;;;;;18.36;71.35;98895.47;5016144;28;20050;-53
2023/07/01 03:02:50;;;;;;;1.20;0.90;;;;;;;18.35;71.14;98888.53;5021287;28;20056;-52
2023/07/01 03:05:21;;;;;;;1.80;0.60;;;;;;;18.34;71.14;98897.34;5015337;28;20138;-49
2023/07/01 03:07:48;;;;;;;2.72;0.68;;;;;;;18.34;70.49;98897.34;5015911;28;20041;-52
2023/07/01 03:10:15;;;;;;;2.03;0.85;;;;;;;18.31;71.17;98900.94;5017083;28;20065;-52
2023/07/01 03:12:41;;;;;;;2.35;0.63;;;;;;;18.31;71.23;98898.31;5017694;28;20511;-53
2023/07/01 03:15:08;;;;;;;0.98;0.70;;;;;;;18.28;70.93;98908.13;5012597;28;20056;-49
2023/07/01 03:17:35;;;;;;;1.25;0.70;;;;;;;18.26;71.01;98902.09;5019176;28;20049;-54
2023/07/01 03:20:04;;;;;;;1.45;0.60;;;;;;;18.26;70.56;98905.59;5015478;28;20136;-51
2023/07/01 03:22:31;;;;;;;1.30;0.60;;;;;;;18.25;70.59;98909.16;5015943;28;20072;-47
2023/07/01 03:24:57;;;;;;;0.93;0.40;;;;;;;18.24;70.40;98902.22;5019473;28;20057;-52
2023/07/01 03:27:24;;;;;;;3.08;1.30;;;;;;;18.23;70.63;98906.59;5014519;28;20430;-51
2023/07/01 03:29:52;;;;;;;0.60;0.30;;;;;;;18.23;71.20;98916.22;5017895;28;20053;-47
2023/07/01 03:32:19;;;;;;;0.80;0.30;;;;;;;18.22;70.84;98915.41;5016957;28;20048;-50
2023/07/01 03:34:47;;;;;;;1.10;0.35;;;;;;;18.20;70.54;98914.63;5021949;28;20057;-49
2023/07/01 03:37:14;;;;;;;1.80;0.63;;;;;;;18.22;70.92;98925.03;5014551;28;20512;-51
2023/07/01 03:39:40;;;;;;;0.88;0.30;;;;;;;18.21;70.89;98918.94;5021644;28;21411;-52
2023/07/01 03:42:07;;;;;;;1.25;0.43;;;;;;;18.20;70.55;98914.63;5014592;28;20055;-52
2023/07/01 03:44:34;;;;;;;0.98;0.47;;;;;;;18.18;70.13;98919.13;5015259;28;20057;-52
2023/07/01 03:47:00;;;;;;;0.88;0.60;;;;;;;18.20;70.66;98922.47;5017024;28;20424;-51
2023/07/01 03:49:27;;;;;;;1.05;0.50;;;;;;;18.18;70.47;98913.88;5020810;28;20071;-49
2023/07/01 03:51:54;;;;;;;0.63;0.40;;;;;;;18.18;69.84;98918.25;5015217;28;20050;-52
2023/07/01 03:54:20;;;;;;;1.73;0.32;;;;;;;18.17;69.67;98927.88;5018273;28;20057;-51
2023/07/01 03:56:47;;;;;;;0.95;0.40;;;;;;;18.17;69.69;98917.41;5016968;28;20049;-49
2023/07/01 03:59:14;;;;;;;0.65;0.32;;;;;;;18.16;69.57;98923.56;5017098;28;20052;-52
2023/07/01 04:01:41;;;;;;;0.90;0.30;;;;;;;18.14;70.01;98920.19;5016756;28;20049;-53
2023/07/01 04:04:08;;;;;;;2.33;0.63;;;;;;;18.14;69.77;98938.53;5015795;28;20056;-51
2023/07/01 04:06:35;;;;;;;0.80;0.60;;;;;;;18.11;69.66;98938.69;5018884;28;20062;-53
2023/07/01 04:09:01;;;;;;;0.40;0.28;;;;;;;18.02;69.82;98931.25;5014522;28;20053;-53
2023/07/01 04:11:30;;;;;;;0.60;0.50;;;;;;;17.87;70.64;98933.78;5010593;28;20059;-51
2023/07/01 04:13:58;;;;;;;0.50;0.38;;;;;;;17.75;70.82;98937.00;5013410;28;20156;-52
2023/07/01 04:16:24;;;;;;;1.38;0.20;;;;;;;17.63;70.32;98936.69;5017585;28;20138;-52
2023/07/01 04:18:51;;;;;;;0.60;0.35;;;;;;;17.54;70.42;98939.75;5014765;28;20412;-51
2023/07/01 04:21:17;;;;;;;0.50;0.20;;;;;;;17.47;71.29;98929.59;5014013;28;20060;-50
2023/07/01 04:23:44;;;;;;;1.92;0.30;;;;;;;17.41;71.13;98940.38;5012531;28;20413;-52
2023/07/01 04:26:11;;;;;;;0.50;0.20;;;;;;;17.36;71.81;98933.66;5014171;28;20144;-48
2023/07/01 04:28:37;;;;;;;4.25;0.52;;;;;;;17.30;72.05;98943.50;5008991;28;20277;-49
2023/07/01 04:31:04;;;;;;;1.17;0.40;;;;;;;17.25;71.84;98936.81;5015767;28;20064;-54
2023/07/01 04:33:31;;;;;;;0.52;0.43;;;;;;;17.23;72.09;98936.03;5012693;28;20041;-50
2023/07/01 04:35:57;;;;;;;0.70;0.45;;;;;;;17.19;71.76;98930.13;5016196;28;20057;-52
2023/07/01 04:38:24;;;;;;;0.77;0.35;;;;;;;17.13;71.67;98939.09;5009909;28;20520;-50
2023/07/01 04:40:51;;;;;;;0.30;0.30;;;;;;;17.13;72.20;98941.72;5017593;28;20057;-50
2023/07/01 04:43:20;;;;;;;0.50;0.20;;;;;;;17.12;72.32;98934.78;5017595;28;20115;-51
2023/07/01 04:45:47;;;;;;;0.50;0.40;;;;;;;17.13;71.44;98935.63;5013813;28;20057;-52
2023/07/01 04:48:14;;;;;;;0.60;0.40;;;;;;;17.13;72.11;98941.72;5010725;28;20493;-52
2023/07/01 04:50:40;;;;;;;0.45;0.30;;;;;;;17.14;71.54;98943.41;5011776;28;20055;-51
2023/07/01 04:53:07;;;;;;;0.50;0.40;;;;;;;17.15;71.78;98939.88;5014505;28;21404;-51
2023/07/01 04:55:34;;;;;;;0.55;0.20;;;;;;;17.16;72.25;98946.78;5016708;28;20053;-50
2023/07/01 04:58:01;;;;;;;0.32;0.20;;;;;;;17.17;72.31;98952.88;5012619;28;20068;-50
2023/07/01 05:00:27;;;;;;;0.63;0.30;;;;;;;17.18;71.75;98960.66;5010697;28;20048;-52
2023/07/01 05:02:54;;;;;;;0.90;0.40;;;;;;;17.15;71.80;98963.41;5007398;28;20057;-52
2023/07/01 05:05:21;;;;;;;0.63;0.38;;;;;;;17.15;72.47;98960.78;5018667;28;20057;-49
2023/07/01 05:07:48;;;;;;;1.10;0.30;;;;;;;17.16;71.85;98967.72;5016446;28;20048;-50
2023/07/01 05:10:15;;;;;;;1.80;0.50;;;;;;;17.18;71.77;98965.88;5016280;28;20063;-50
2023/07/01 05:12:41;;;;;;;0.75;0.50;;;;;;;17.20;71.59;98958.78;5015672;28;20056;-50
2023/07/01 05:15:08;;;;;;;0.68;0.35;;;;;;;17.23;72.13;98962.19;5017281;28;20057;-48
2023/07/01 05:17:35;;;;;;;0.70;0.20;;;;;;;17.26;72.50;98962.06;5013418;28;20049;-49
2023/07/01 05:20:03;;;;;;;0.88;0.50;;;;;;;17.26;72.38;98959.44;5018330;28;20515;-49
2023/07/01 05:22:29;;;;;;;1.10;0.40;;;;;;;17.28;71.91;98968.03;5021246;28;20272;-51
2023/07/01 05:24:56;;;;;;;0.80;0.50;;;;;;;17.29;71.78;98959.28;5020366;28;20055;-54
2023/07/01 05:27:23;;;;;;;0.60;0.30;;;;;;;17.31;71.65;98967.91;5017189;28;20050;-49
2023/07/01 05:29:49;;;;;;;0.50;0.30;;;;;;;17.34;72.62;98965.16;5007341;28;20061;-51
2023/07/01 05:32:16;;;;;;;1.25;0.30;;;;;;;17.36;72.33;98965.91;5008129;28;20056;-50
2023/07/01 05:34:43;;;;;;;0.80;0.30;;;;;;;17.38;72.47;98966.69;5006981;28;21660;-51
2023/07/01 05:37:10;;;;;;;0.60;0.50;;;;;;;17.39;72.47;98976.22;5004874;28;20429;-50
2023/07/01 05:39:37;;;;;;;1.58;0.40;;;;;;;17.41;72.22;98971.78;5008745;28;20049;-49
2023/07/01 05:42:05;;;;;;;2.78;0.65;;;;;;;17.41;72.33;98970.94;5015674;28;20048;-49
2023/07/01 05:44:31;;;;;;;0.60;0.40;;;;;;;17.43;71.63;98977.78;5011150;28;20084;-52
2023/07/01 05:46:58;;;;;;;0.57;0.20;;;;;;;17.44;72.09;98981.25;5016491;28;20061;-51
2023/07/01 05:49:25;;;;;;;1.40;0.30;;;;;;;17.42;71.95;98976.09;5013470;28;20045;-53
2023/07/01 05:51:52;;;;;;;0.50;0.22;;;;;;;17.41;71.57;98971.78;5009866;28;20055;-53
2023/07/01 05:54:19;;;;;;;4.00;0.90;;;;;;;17.42;71.73;98972.63;5012006;28;20462;-52
2023/07/01 05:56:45;;;;;;;1.20;0.63;;;;;;;17.42;72.16;98973.47;5015758;28;22168;-51
2023/07/01 05:59:13;;;;;;;1.02;0.52;;;;;;;17.42;71.78;98978.72;5013254;28;20398;-51
2023/07/01 06:01:40;;;;;;;0.43;0.40;;;;;;;17.43;71.88;98985.63;5011441;28;20049;-50
2023/07/01 06:04:06;;;;;;;0.85;0.63;;;;;;;17.45;72.15;98990.78;5007296;28;20112;-50
2023/07/01 06:06:33;;;;;;;0.57;0.43;;;;;;;17.47;71.90;98992.41;5011945;28;20064;-49
2023/07/01 06:09:00;;;;;;;0.90;0.73;;;;;;;17.50;72.12;98993.19;5013435;28;20401;-49
2023/07/01 06:11:26;;;;;;;0.55;0.30;;;;;;;17.47;71.45;98992.41;5016734;28;20065;-49
2023/07/01 06:13:53;;;;;;;0.30;0.13;;;;;;;17.50;71.41;98995.81;5017575;28;20049;-50
2023/07/01 06:16:20;;;;;;;0.80;0.50;;;;;;;17.50;71.33;99001.06;5012984;28;20057;-47
2023/07/01 06:18:47;;;;;;;0.77;0.52;;;;;;;17.47;71.69;98992.41;5016393;28;20124;-52
2023/07/01 06:21:13;;;;;;;0.77;0.20;;;;;;;17.46;71.37;99006.44;5014524;28;20045;-52
2023/07/01 06:23:40;;;;;;;1.23;0.35;;;;;;;17.43;71.19;99005.75;5008381;28;20057;-52
2023/07/01 06:26:07;;;;;;;2.60;0.65;;;;;;;17.42;70.23;99004.88;5015238;28;20417;-50
2023/07/01 06:28:33;;;;;;;0.70;0.50;;;;;;;17.41;70.82;99011.03;5015746;28;20041;-49
2023/07/01 06:31:00;;;;;;;0.77;0.40;;;;;;;17.40;71.23;99014.59;5009876;28;20784;-49
2023/07/01 06:33:27;;;;;;;1.05;0.40;;;;;;;17.42;71.11;99004.88;5007214;28;20053;-52
2023/07/01 06:35:54;;;;;;;0.43;0.30;;;;;;;17.42;70.91;99015.34;5016868;28;20052;-47
2023/07/01 06:38:20;;;;;;;0.50;0.13;;;;;;;17.41;71.08;99023.28;5019101;28;20060;-52
2023/07/01 06:40:47;;;;;;;1.73;0.40;;;;;;;17.38;71.09;99026.88;5015204;28;21046;-53
2023/07/01 06:43:14;;;;;;;0.98;0.40;;;;;;;17.41;71.09;99029.38;5014450;28;20052;-47
2023/07/01 06:45:43;;;;;;;2.80;0.32;;;;;;;17.41;70.17;99031.13;5010593;28;20401;-53
2023/07/01 06:48:10;;;;;;;1.08;0.60;;;;;;;17.39;70.99;99031.19;5014366;28;20081;-53
2023/07/01 06:50:36;;;;;;;0.50;0.20;;;;;;;17.41;70.32;99029.38;5016756;28;20075;-49
2023/07/01 06:53:03;;;;;;;1.77;0.65;;;;;;;17.43;70.62;99027.50;5014762;28;20044;-52
2023/07/01 06:55:30;;;;;;;1.30;0.30;;;;;;;17.46;70.47;99022.13;5013545;28;20064;-48
2023/07/01 06:57:57;;;;;;;0.70;0.40;;;;;;;17.51;69.68;99028.91;5012443;28;20172;-50
2023/07/01 07:00:24;;;;;;;0.63;0.50;;;;;;;17.54;69.89;99023.53;5009787;28;20044;-49
2023/07/01 07:02:51;;;;;;;1.10;0.40;;;;;;;17.59;70.64;99021.53;5009944;28;20049;-52
2023/07/01 07:05:18;;;;;;;0.77;0.30;;;;;;;17.64;69.73;99024.78;5013121;28;20049;-48
2023/07/01 07:07:45;;;;;;;0.55;0.47;;;;;;;17.71;69.83;99025.34;5012888;28;20056;-49
2023/07/01 07:10:12;;;;;;;0.98;0.30;;;;;;;17.73;69.14;99019.09;5011906;28;20515;-50
2023/07/01 07:12:38;;;;;;;0.95;0.40;;;;;;;17.75;69.75;99031.25;5015762;28;20056;-52
2023/07/01 07:15:06;;;;;;;1.40;0.30;;;;;;;17.72;69.08;99027.88;5018006;28;20061;-51
2023/07/01 07:17:34;;;;;;;0.70;0.47;;;;;;;17.71;68.53;99035.81;5016191;28;20052;-52
2023/07/01 07:20:02;;;;;;;1.10;0.40;;;;;;;17.67;69.12;99032.47;5016226;28;20412;-49
2023/07/01 07:22:29;;;;;;;0.70;0.30;;;;;;;17.68;69.44;99041.19;5012787;28;20394;-50
2023/07/01 07:24:57;;;;;;;1.65;0.40;;;;;;;17.67;69.11;99040.34;5010378;28;20675;-49
2023/07/01 07:27:24;;;;;;;0.63;0.32;;;;;;;17.76;69.40;99048.69;5010581;28;20049;-46
2023/07/01 07:29:50;;;;;;;1.10;0.70;;;;;;;17.86;68.63;99049.91;5011383;28;20496;-47
2023/07/01 07:32:17;;;;;;;3.70;0.32;;;;;;;17.94;68.87;99058.25;5010159;28;20111;-48
2023/07/01 07:34:44;;;;;;;1.30;0.47;;;;;;;18.04;68.90;99052.56;5011293;28;20060;-52
2023/07/01 07:37:11;;;;;;;1.58;0.40;;;;;;;18.14;69.12;99043.34;5008663;28;20067;-50
2023/07/01 07:39:37;;;;;;;4.82;0.73;;;;;;;18.22;68.45;99046.44;5015929;28;20052;-50
2023/07/01 07:42:04;;;;;;;0.95;0.30;;;;;;;18.33;68.36;99052.88;5011615;28;20045;-48
2023/07/01 07:44:31;;;;;;;2.58;0.50;;;;;;;18.40;68.76;99046.41;5016235;28;20058;-50
2023/07/01 07:46:58;;;;;;;1.27;0.30;;;;;;;18.46;68.87;99048.72;5019089;28;20604;-50
2023/07/01 07:49:25;;;;;;;0.63;0.50;;;;;;;18.47;68.02;99050.41;5014202;28;20045;-50
2023/07/01 07:51:52;;;;;;;1.95;0.43;;;;;;;18.46;68.17;99038.22;5019321;28;20056;-52
2023/07/01 07:54:19;;;;;;;1.42;0.70;;;;;;;18.43;68.19;99048.88;5022353;28;20460;-50
2023/07/01 07:56:45;;;;;;;0.90;0.40;;;;;;;18.35;67.98;99045.81;5015867;28;20297;-50
2023/07/01 07:59:12;;;;;;;0.50;0.30;;;;;;;18.21;67.44;99055.19;5018982;28;20050;-48
2023/07/01 08:01:39;;;;;;;0.93;0.50;;;;;;;18.08;68.36;99043.63;5016337;28;20045;-48
2023/07/01 08:04:05;;;;;;;0.75;0.40;;;;;;;18.02;67.91;99044.78;5018672;28;20045;-50
2023/07/01 08:06:32;;;;;;;3.55;0.73;;;;;;;18.03;67.91;99048.25;5019854;28;20053;-49
2023/07/01 08:08:59;;;;;;;0.63;0.20;;;;;;;18.04;67.78;99048.16;5017187;28;20053;-47
2023/07/01 08:11:25;;;;;;;0.98;0.85;;;;;;;18.06;68.10;99055.94;5011020;28;20064;-49
2023/07/01 08:13:52;;;;;;;1.63;0.30;;;;;;;18.05;67.25;99055.09;5002309;28;22010;-51
2023/07/01 08:16:19;;;;;;;0.45;0.20;;;;;;;18.02;67.58;99057.00;5011953;28;20068;-47
2023/07/01 08:18:45;;;;;;;1.10;0.55;;;;;;;18.04;67.57;99055.19;5010917;28;20095;-47
2023/07/01 08:21:12;;;;;;;0.65;0.20;;;;;;;18.10;67.37;99052.28;5014306;28;20073;-48
2023/07/01 08:23:39;;;;;;;3.95;0.55;;;;;;;18.17;67.53;99052.84;5016097;28;20053;-48
2023/07/01 08:26:05;;;;;;;1.25;0.40;;;;;;;18.31;67.97;99060.00;5011055;28;20049;-49
2023/07/01 08:28:32;;;;;;;0.70;0.30;;;;;;;18.43;67.16;99061.97;5013963;28;20053;-48
2023/07/01 08:30:59;;;;;;;1.02;0.75;;;;;;;18.53;66.77;99064.13;5008706;28;20041;-48
2023/07/01 08:33:26;;;;;;;1.92;0.40;;;;;;;18.54;66.10;99063.22;5015321;28;20103;-49
2023/07/01 08:35:53;;;;;;;0.63;0.63;;;;;;;18.56;65.65;99058.72;5014496;28;20056;-48
2023/07/01 08:38:19;;;;;;;1.27;0.40;;;;;;;18.61;65.93;99051.47;5012056;28;20042;-48
2023/07/01 08:40:50;;;;;;;1.40;0.47;;;;;;;18.66;65.30;99044.22;5017643;28;21160;-52
2023/07/01 08:43:23;;;;;;;1.27;0.40;;;;;;;18.76;65.95;99049.81;5013383;28;20056;-48
2023/07/01 08:45:51;;;;;;;1.27;0.60;;;;;;;18.92;66.10;99055.09;5009845;28;20055;-51
2023/07/01 08:48:21;;;;;;;1.52;0.98;;;;;;;19.10;65.93;99053.28;5014046;28;20672;-50
2023/07/01 08:53:31;;;;;;;1.80;1.58;;;;;;;19.63;64.26;99065.31;5062920;27;20426;-49
2023/07/01 08:55:59;;;;;;;3.33;1.67;;;;;;;19.62;64.55;99061.00;5029605;28;20064;-50
2023/07/01 08:58:26;;;;;;;2.10;2.00;;;;;;;19.67;64.31;99061.56;5028075;28;20063;-49
2023/07/01 09:00:52;;;;;;;1.52;1.20;;;;;;;19.71;63.84;99063.09;5022379;28;20060;-52
2023/07/01 09:03:20;;;;;;;2.90;1.75;;;;;;;19.72;63.99;99059.53;5028465;28;20041;-51
2023/07/01 09:05:47;;;;;;;2.50;1.60;;;;;;;19.73;63.60;99057.75;5025770;28;20049;-52
2023/07/01 09:08:14;;;;;;;1.15;1.05;;;;;;;19.68;63.14;99060.63;5027456;28;20485;-50
2023/07/01 09:10:41;;;;;;;1.52;1.35;;;;;;;19.64;63.02;99056.50;5029186;28;20073;-51
2023/07/01 09:13:09;;;;;;;1.60;1.15;;;;;;;19.59;63.51;99058.53;5028849;28;20069;-52
2023/07/01 09:15:52;;;;;;;1.73;1.17;;;;;;;19.49;62.93;99053.78;5029637;28;20060;-52
2023/07/01 09:18:20;;;;;;;0.70;0.28;;;;;;;19.51;62.88;99062.44;5029151;28;20582;-49
2023/07/01 09:20:49;;;;;;;1.40;1.30;;;;;;;19.48;61.77;99062.59;5030705;28;20048;-53
2023/07/01 09:23:35;;;;;;;1.73;1.48;;;;;;;19.37;61.30;99051.84;5032261;28;20059;-52
2023/07/01 09:28:43;;;;;;;1.42;0.40;;;;;;;19.35;62.03;99056.34;5074763;27;20414;-50
2023/07/01 09:31:14;;;;;;;1.88;0.63;;;;;;;19.31;61.67;99055.66;5006439;27;21222;-50
2023/07/01 09:33:56;;;;;;;2.00;0.30;;;;;;;19.24;61.53;99057.78;4989402;28;20041;-52
2023/07/01 09:36:25;;;;;;;0.45;0.45;;;;;;;19.23;61.48;99057.88;4996887;28;20493;-50
2023/07/01 09:38:53;;;;;;;0.93;0.45;;;;;;;19.17;61.20;99056.41;4997631;28;20054;-50
2023/07/01 09:41:23;;;;;;;1.02;0.43;;;;;;;19.14;61.73;99064.44;4996471;28;20053;-51
2023/07/01 09:43:52;;;;;;;1.38;0.70;;;;;;;19.11;61.39;99059.38;4996526;28;20053;-52
2023/07/01 09:46:19;;;;;;;0.77;0.68;;;;;;;19.12;61.26;99066.34;5010039;28;20053;-53
2023/07/01 09:48:55;;;;;;;0.85;0.70;;;;;;;19.16;61.51;99070.47;5013445;28;20072;-52
2023/07/01 09:51:24;;;;;;;1.38;0.30;;;;;;;19.26;61.40;99068.19;5030772;28;20057;-51
2023/07/01 09:53:51;;;;;;;0.47;0.30;;;;;;;19.37;61.17;99064.97;5014239;28;20810;-49
2023/07/01 09:56:18;;;;;;;0.68;0.30;;;;;;;19.47;60.57;99071.41;5006922;28;20115;-51
2023/07/01 09:58:46;;;;;;;1.63;0.30;;;;;;;19.57;60.71;99070.91;5008884;28;20631;-50
2023/07/01 10:01:15;;;;;;;1.98;1.15;;;;;;;19.70;60.79;99058.78;5009260;28;20064;-51
2023/07/01 10:03:42;;;;;;;1.17;0.43;;;;;;;19.81;60.44;99057.31;5008948;28;20065;-51
2023/07/01 10:06:10;;;;;;;0.30;0.20;;;;;;;19.93;60.31;99072.38;5008540;28;22123;-52
2023/07/01 10:08:38;;;;;;;0.63;0.55;;;;;;;19.95;59.72;99060.00;5010210;28;20124;-53
2023/07/01 10:13:46;;;;;;;1.65;0.30;;;;;;;19.98;59.32;99049.31;5048357;28;20406;-49
2023/07/01 10:16:13;;;;;;;0.40;0.30;;;;;;;19.99;59.54;99060.69;5005885;27;20056;-55
2023/07/01 10:18:40;;;;;;;2.35;0.38;;;;;;;20.03;59.29;99072.72;4997783;28;20108;-53
2023/07/01 10:21:27;;;;;;;0.57;0.22;;;;;;;19.97;58.87;99068.66;5003043;28;20468;-52
2023/07/01 10:23:56;;;;;;;1.67;0.43;;;;;;;19.98;58.65;99070.34;5007692;28;20092;-52
2023/07/01 10:26:44;;;;;;;0.68;0.30;;;;;;;19.87;58.49;99070.09;5002224;28;20104;-51
2023/07/01 10:37:41;;;;;;;0.75;0.60;;;;;;;19.85;58.69;99074.59;5029658;27;20409;-51
2023/07/01 10:43:29;;;;;;;0.82;0.20;;;;;;;20.03;58.92;99078.00;5058337;27;20419;-51
2023/07/01 10:48:42;;;;;;;1.00;0.70;;;;;;;20.17;58.05;99085.06;4997144;27;20812;-51
2023/07/01 10:51:12;;;;;;;1.65;1.55;;;;;;;20.17;57.21;99077.19;4980532;28;20478;-51
2023/07/01 10:54:00;;;;;;;1.77;1.67;;;;;;;20.06;57.09;99085.66;4983217;28;20061;-51
2023/07/01 10:56:34;;;;;;;2.40;2.15;;;;;;;20.07;56.80;99078.66;4969921;28;20069;-54
2023/07/01 10:59:23;;;;;;;2.10;1.80;;;;;;;19.88;56.34;99087.56;4982396;28;20080;-54
2023/07/01 11:01:51;;;;;;;3.22;1.63;;;;;;;19.88;57.01;99079.66;4985203;28;20073;-51
2023/07/01 11:04:19;;;;;;;2.88;2.67;;;;;;;19.80;57.40;99081.88;4980367;28;20058;-55
2023/07/01 11:06:52;;;;;;;1.42;1.33;;;;;;;19.85;57.22;99090.34;4979625;28;20080;-53
2023/07/01 11:09:28;;;;;;;2.63;2.42;;;;;;;19.93;57.84;99088.16;4981227;28;20407;-53
2023/07/01 11:11:56;;;;;;;2.78;1.38;;;;;;;20.08;57.65;99090.84;4985502;28;20397;-52
2023/07/01 11:14:40;;;;;;;2.13;1.98;;;;;;;20.22;57.85;99092.66;4983501;28;20723;-52
2023/07/01 11:19:44;;;;;;;1.48;0.40;;;;;;;20.54;57.05;99096.03;5044892;28;20421;-51
2023/07/01 11:22:12;;;;;;;0.90;0.70;;;;;;;20.64;56.38;99092.84;4985743;28;20057;-51
2023/07/01 11:24:40;;;;;;;0.90;0.40;;;;;;;20.73;56.69;99099.34;4985739;28;20488;-51
2023/07/01 11:27:08;;;;;;;1.27;0.63;;;;;;;20.75;55.99;99103.59;4988752;28;20066;-50
2023/07/01 11:29:36;;;;;;;0.98;0.80;;;;;;;20.74;56.06;99099.25;4981220;28;20564;-52
2023/07/01 11:32:09;;;;;;;1.40;0.98;;;;;;;20.75;56.18;99087.81;4975291;28;20054;-50
2023/07/01 11:34:36;;;;;;;1.45;0.55;;;;;;;20.76;56.00;99092.13;5001465;28;20419;-48
2023/07/01 11:37:03;;;;;;;1.55;0.75;;;;;;;20.83;55.74;99097.00;4969909;28;20046;-50
2023/07/01 11:39:29;;;;;;;1.17;0.88;;;;;;;20.86;55.98;99096.81;4968502;28;20050;-53
2023/07/01 11:44:34;;;;;;;1.52;0.93;;;;;;;21.15;54.56;99104.75;5030451;28;20398;-54
2023/07/01 11:47:01;;;;;;;1.95;1.85;;;;;;;21.00;55.30;99098.63;5001115;28;20053;-52
2023/07/01 11:49:29;;;;;;;1.73;0.60;;;;;;;20.98;55.70;99096.09;5001598;28;20409;-55
2023/07/01 11:51:58;;;;;;;1.38;1.08;;;;;;;20.95;55.25;99104.19;5000316;28;22425;-52
2023/07/01 11:54:44;;;;;;;0.93;0.70;;;;;;;20.91;54.85;99110.56;4999256;28;20589;-52
2023/07/01 11:59:48;;;;;;;1.23;1.05;;;;;;;21.07;55.79;99110.47;5028485;27;21959;-49
2023/07/01 12:02:15;;;;;;;1.08;0.93;;;;;;;21.17;55.66;99110.75;5005667;28;20061;-49
2023/07/01 12:04:42;;;;;;;1.27;1.08;;;;;;;21.25;55.51;99115.53;4999400;28;20144;-53
2023/07/01 12:07:11;;;;;;;0.88;0.65;;;;;;;21.32;55.60;99114.22;5006364;28;20124;-50
2023/07/01 12:09:40;;;;;;;1.50;1.08;;;;;;;21.36;55.46;99106.97;5007848;28;20089;-52
2023/07/01 12:12:10;;;;;;;1.70;1.00;;;;;;;21.42;54.98;99122.38;5005858;28;20045;-53
2023/07/01 12:14:38;;;;;;;;;;;;;;;21.36;55.45;99120.13;5009672;28;20635;-53
2023/07/01 12:17:05;;;;;;;1.00;0.75;;;;;;;21.55;55.69;99120.66;5006593;28;19925;-51